This is the latest recevied weather packets stored in our database for station/object HP1COO-13. If no packets are shown the sender has not sent any weather packets the latest 10 day(s).
| Time | Temp. | Humidity | Pressure | Rain* | Wind** | Luminosity | Snow |
|---|---|---|---|---|---|---|---|
| 1777566819 | 32.78° C | 66% | 1005.9 hPa | 0 mm | - | - | - |
| 1777566186 | 32.22° C | 68% | 1006.1 hPa | 0 mm | - | - | - |
| 1777565553 | 32.78° C | 66% | 1006 hPa | 0 mm | - | - | - |
| 1777564920 | 32.78° C | 67% | 1005.6 hPa | 0 mm | - | - | - |
| 1777564287 | 32.22° C | 68% | 1005.9 hPa | 0 mm | - | - | - |
| 1777563021 | 31.11° C | 72% | 1006.1 hPa | 0 mm | - | - | - |
| 1777562388 | 31.11° C | 72% | 1006.3 hPa | 0 mm | - | - | - |
| 1777561755 | 31.11° C | 73% | 1006.5 hPa | 0 mm | - | - | - |
| 1777561122 | 30.56° C | 74% | 1006.7 hPa | 0 mm | - | - | - |
| 1777560679 | 30.56° C | 75% | 1007 hPa | 0 mm | - | - | - |
| 1777560489 | 30.56° C | 75% | 1006.5 hPa | 0 mm | - | - | - |
| 1777559856 | 30° C | 77% | 1006.5 hPa | 0 mm | - | - | - |
| 1777559223 | 30.56° C | 75% | 1006.4 hPa | 0 mm | - | - | - |
| 1777558590 | 30° C | 78% | 1006.6 hPa | 0 mm | - | - | - |
| 1777557957 | 29.44° C | 79% | 1006.5 hPa | 0 mm | - | - | - |
| 1777557324 | 28.89° C | 80% | 1006.8 hPa | 0 mm | - | - | - |
| 1777556691 | 28.89° C | 82% | 1006.6 hPa | 0 mm | - | - | - |
| 1777556058 | 28.33° C | 83% | 1006.5 hPa | 0 mm | - | - | - |
| 1777555425 | 27.78° C | 86% | 1006.6 hPa | 0 mm | - | - | - |
| 1777554792 | 27.78° C | 87% | 1006.6 hPa | 0 mm | - | - | - |
| 1777554159 | 26.67° C | 89% | 1006.9 hPa | 0 mm | - | - | - |
| 1777553526 | 26.67° C | 89% | 1006.4 hPa | 0 mm | - | - | - |
| 1777552893 | 26.67° C | 91% | 1006.4 hPa | 0 mm | - | - | - |
| 1777552260 | 26.11° C | 92% | 1006.2 hPa | 0 mm | - | - | - |
| 1777551627 | 26.11° C | 93% | 1006 hPa | 0 mm | - | - | - |
* Rain latest hour (hover to see other rain measurements)
** Current wind speed in m/s (hover to see current wind gust speed)